Sheppard AFB, Texas
Current Conditions -  °F | °C
As of 2:52 PM on Friday 24 Oct 2014 (Local Time) from KSPS Reporting Station
Few Clouds Few Clouds  
Wind Chill: 85°   Ceiling: Unl
Heat Index: 85°   Visibility: 10mi
Dew Point: 62°   Wind: 13mph
Humidity: 46%   Direction: 210°SSW
Pressure: 30.05"   Gusts: 17mph
Location:  33.94°N, 98.5°W
Report Text: KSPS 241952Z 21011G15KT 10SM FEW250 29/17 A3005 RMK AO2 SLP163 T02940167
Loading
Personal Weather Stations






























Interactive Weather Map
Tropical Storm Tracking
New forecast layout! Learn more

10-Day Weather Forecast

Advertisements
Track Severe Weather on mobile